createdAt,value
2016-08-23T00:00:20.352Z,19.08
2016-08-23T00:00:44.805Z,19.10
2016-08-23T00:01:06.515Z,19.12
2016-08-23T00:01:28.238Z,19.12
2016-08-23T00:01:49.965Z,19.10
2016-08-23T00:02:14.576Z,19.13
2016-08-23T00:02:36.321Z,19.11
2016-08-23T00:03:00.787Z,19.08
2016-08-23T00:03:22.513Z,19.10
2016-08-23T00:03:44.241Z,19.04
2016-08-23T00:04:05.965Z,19.02
2016-08-23T00:04:27.687Z,18.95
2016-08-23T00:05:19.830Z,18.76
2016-08-23T00:05:51.093Z,18.74
2016-08-23T00:06:13.817Z,18.76
2016-08-23T00:06:35.537Z,18.78
2016-08-23T00:07:28.527Z,18.78
2016-08-23T00:07:55.022Z,18.83
2016-08-23T00:08:24.794Z,18.79
2016-08-23T00:08:46.596Z,18.77
2016-08-23T00:09:08.319Z,18.79
2016-08-23T00:09:30.046Z,18.84
2016-08-23T00:09:57.144Z,18.87
2016-08-23T00:10:52.653Z,18.79
2016-08-23T00:11:17.201Z,18.82
2016-08-23T00:11:41.456Z,18.84
2016-08-23T00:12:08.945Z,18.87
2016-08-23T00:12:33.237Z,18.89
2016-08-23T00:12:54.967Z,18.96
2016-08-23T00:13:16.737Z,18.97
2016-08-23T00:13:41.203Z,18.97
2016-08-23T00:14:02.931Z,18.99
2016-08-23T00:14:27.399Z,18.95
2016-08-23T00:14:51.667Z,18.94
2016-08-23T00:15:44.657Z,18.88
2016-08-23T00:16:37.651Z,18.95
2016-08-23T00:16:59.437Z,18.92
2016-08-23T00:17:30.699Z,18.93
2016-08-23T00:17:52.420Z,18.93
2016-08-23T00:18:40.636Z,18.87
2016-08-23T00:19:03.353Z,18.85
2016-08-23T00:19:29.854Z,18.81
2016-08-23T00:19:52.582Z,18.80
2016-08-23T00:20:14.314Z,18.82
2016-08-23T00:20:36.048Z,18.75
2016-08-23T00:21:03.550Z,18.74
2016-08-23T00:21:30.055Z,18.69
2016-08-23T00:21:51.778Z,18.66
2016-08-23T00:22:13.515Z,18.63
2016-08-23T00:22:36.247Z,18.67
2016-08-23T00:23:55.716Z,18.79
2016-08-23T00:24:22.217Z,18.83
2016-08-23T00:24:43.948Z,18.86
2016-08-23T00:25:05.665Z,18.80
2016-08-23T00:25:36.931Z,18.72
2016-08-23T00:26:03.538Z,18.75
2016-08-23T00:26:25.262Z,18.77
2016-08-23T00:26:51.755Z,18.76
2016-08-23T00:27:13.478Z,18.74
2016-08-23T00:28:08.452Z,18.65
2016-08-23T00:28:34.941Z,18.60
2016-08-23T00:28:56.658Z,18.50
2016-08-23T00:29:27.910Z,18.47
2016-08-23T00:29:50.683Z,18.46
2016-08-23T00:30:17.170Z,18.47
2016-08-23T00:30:41.641Z,18.45
2016-08-23T00:31:05.974Z,18.42
2016-08-23T00:31:34.994Z,18.45
2016-08-23T00:32:23.227Z,18.54
2016-08-23T00:32:52.362Z,18.50
2016-08-23T00:33:21.267Z,18.46
2016-08-23T00:33:42.985Z,18.46
2016-08-23T00:34:09.928Z,18.45
2016-08-23T00:34:31.670Z,18.49
2016-08-23T00:34:56.076Z,18.52
2016-08-23T00:35:17.795Z,18.51
2016-08-23T00:35:42.206Z,18.54
2016-08-23T00:36:03.942Z,18.58
2016-08-23T00:37:33.956Z,18.65
2016-08-23T00:38:05.217Z,18.54
2016-08-23T00:38:36.489Z,18.42
2016-08-23T00:38:58.199Z,18.38
2016-08-23T00:39:19.922Z,18.34
2016-08-23T00:39:44.511Z,18.28
2016-08-23T00:40:06.237Z,18.23
2016-08-23T00:41:01.783Z,18.20
2016-08-23T00:41:26.435Z,18.34
2016-08-23T00:41:52.926Z,18.39
2016-08-23T00:42:14.652Z,18.43
2016-08-23T00:42:43.960Z,18.42
2016-08-23T00:43:05.676Z,18.46
2016-08-23T00:43:27.447Z,18.48
2016-08-23T00:43:49.386Z,18.45
2016-08-23T00:44:47.517Z,18.41
2016-08-23T00:45:11.985Z,18.41
2016-08-23T00:45:33.707Z,18.39
2016-08-23T00:45:55.442Z,18.37
2016-08-23T00:46:32.102Z,18.37
2016-08-23T00:47:03.875Z,18.32
2016-08-23T00:47:30.362Z,18.28
2016-08-23T00:47:52.097Z,18.30
2016-08-23T00:48:18.399Z,18.32
2016-08-23T00:48:40.181Z,18.37
2016-08-23T00:49:05.620Z,18.33
2016-08-23T00:49:27.388Z,18.33
2016-08-23T00:49:51.805Z,18.38
2016-08-23T00:50:16.189Z,18.40
2016-08-23T00:50:42.678Z,18.39
2016-08-23T00:51:35.513Z,18.35
2016-08-23T00:52:02.016Z,18.33
2016-08-23T00:52:54.995Z,18.42
2016-08-23T00:53:26.276Z,18.41
2016-08-23T00:53:52.766Z,18.43
2016-08-23T00:54:40.981Z,18.40
2016-08-23T00:55:38.540Z,18.43
2016-08-23T00:56:07.625Z,18.37
2016-08-23T00:56:29.347Z,18.36
2016-08-23T00:56:58.167Z,18.42
2016-08-23T00:57:22.430Z,18.46
2016-08-23T00:58:10.669Z,18.39
2016-08-23T00:59:08.256Z,18.43
2016-08-23T00:59:59.308Z,18.45
2016-08-23T01:00:21.050Z,18.45
2016-08-23T01:01:09.255Z,18.46
2016-08-23T01:01:38.579Z,18.46
2016-08-23T01:02:00.295Z,18.56
2016-08-23T01:03:27.392Z,18.43
2016-08-23T01:03:59.266Z,18.42
2016-08-23T01:04:20.976Z,18.40
2016-08-23T01:04:42.692Z,18.40
2016-08-23T01:05:07.355Z,18.37
2016-08-23T01:05:29.083Z,18.34
2016-08-23T01:05:50.797Z,18.33
2016-08-23T01:06:15.246Z,18.31
2016-08-23T01:06:36.967Z,18.33
2016-08-23T01:06:58.681Z,18.31
2016-08-23T01:07:23.239Z,18.26
2016-08-23T01:07:54.499Z,18.25
2016-08-23T01:08:18.973Z,18.28
2016-08-23T01:08:40.703Z,18.34
2016-08-23T01:09:02.430Z,18.37
2016-08-23T01:09:24.160Z,18.36
2016-08-23T01:09:45.902Z,18.37
2016-08-23T01:11:05.360Z,18.33
2016-08-23T01:11:27.087Z,18.33
2016-08-23T01:12:15.302Z,18.12
2016-08-23T01:12:39.766Z,18.07
2016-08-23T01:13:01.483Z,18.05
2016-08-23T01:13:23.197Z,18.03
2016-08-23T01:13:47.752Z,18.03
2016-08-23T01:14:09.479Z,18.07
2016-08-23T01:14:33.915Z,18.07
2016-08-23T01:14:55.639Z,18.03
2016-08-23T01:15:17.354Z,18.05
2016-08-23T01:15:39.158Z,18.10
2016-08-23T01:16:00.874Z,18.13
2016-08-23T01:16:22.602Z,18.18
2016-08-23T01:16:44.310Z,18.21
2016-08-23T01:17:06.167Z,18.24
2016-08-23T01:18:00.154Z,18.12
2016-08-23T01:18:57.907Z,18.15
2016-08-23T01:19:47.137Z,18.24
2016-08-23T01:20:08.909Z,18.26
2016-08-23T01:20:30.645Z,18.28
2016-08-23T01:20:52.368Z,18.33
2016-08-23T01:21:14.090Z,18.33
2016-08-23T01:21:36.814Z,18.26
2016-08-23T01:22:04.323Z,18.25
2016-08-23T01:22:57.302Z,18.13
2016-08-23T01:23:20.019Z,18.08
2016-08-23T01:23:42.729Z,18.08
2016-08-23T01:24:04.547Z,18.06
2016-08-23T01:24:33.755Z,18.10
2016-08-23T01:25:00.251Z,18.04
2016-08-23T01:25:51.048Z,18.10
2016-08-23T01:26:12.783Z,18.07
2016-08-23T01:26:34.507Z,18.02
2016-08-23T01:27:01.045Z,17.96
2016-08-23T01:27:23.958Z,17.90
2016-08-23T01:27:45.718Z,17.93
2016-08-23T01:28:07.437Z,18.02
2016-08-23T01:28:29.179Z,18.01
2016-08-23T01:28:50.929Z,18.03
2016-08-23T01:29:12.651Z,18.03
2016-08-23T01:29:35.402Z,17.96
2016-08-23T01:30:02.930Z,17.87
2016-08-23T01:30:34.189Z,17.80
2016-08-23T01:31:22.421Z,17.82
2016-08-23T01:31:44.141Z,17.92
2016-08-23T01:32:10.631Z,17.92
2016-08-23T01:32:32.353Z,17.94
2016-08-23T01:33:20.567Z,18.00
2016-08-23T01:33:44.919Z,18.04
2016-08-23T01:34:39.914Z,18.11
2016-08-23T01:35:01.635Z,18.13
2016-08-23T01:35:23.360Z,18.07
2016-08-23T01:35:45.093Z,18.05
2016-08-23T01:36:06.829Z,18.02
2016-08-23T01:36:28.544Z,17.96
2016-08-23T01:36:51.262Z,17.91
2016-08-23T01:37:14.981Z,17.90
2016-08-23T01:37:37.702Z,17.97
2016-08-23T01:37:59.419Z,18.00
2016-08-23T01:38:21.150Z,18.00
2016-08-23T01:38:47.651Z,17.94
2016-08-23T01:39:09.373Z,17.92
2016-08-23T01:39:31.124Z,17.93
2016-08-23T01:39:53.854Z,17.99
2016-08-23T01:40:15.651Z,18.00
2016-08-23T01:41:04.881Z,17.93
2016-08-23T01:41:53.088Z,17.90
2016-08-23T01:42:15.810Z,17.97
2016-08-23T01:42:37.524Z,18.07
2016-08-23T01:42:59.251Z,18.12
2016-08-23T01:43:25.745Z,18.13
2016-08-23T01:43:47.463Z,18.16
2016-08-23T01:44:09.178Z,18.17
2016-08-23T01:44:30.898Z,18.16
2016-08-23T01:44:52.632Z,18.17
2016-08-23T01:45:14.359Z,18.16
2016-08-23T01:45:36.084Z,18.19
2016-08-23T01:46:03.571Z,18.20
2016-08-23T01:46:26.315Z,18.21
2016-08-23T01:47:14.759Z,18.19
2016-08-23T01:47:36.490Z,18.21
2016-08-23T01:47:58.220Z,18.19
2016-08-23T01:48:19.940Z,18.15
2016-08-23T01:48:41.667Z,18.15
2016-08-23T01:49:04.390Z,18.16
2016-08-23T01:49:26.110Z,18.14
2016-08-23T01:49:47.843Z,18.13
2016-08-23T01:50:09.602Z,18.16
2016-08-23T01:50:31.333Z,18.14
2016-08-23T01:50:54.071Z,18.11
2016-08-23T01:51:15.790Z,18.10
2016-08-23T01:51:37.498Z,18.06
2016-08-23T01:52:26.721Z,18.07
2016-08-23T01:52:55.206Z,18.14
2016-08-23T01:53:20.601Z,18.10
2016-08-23T01:53:42.317Z,18.03
2016-08-23T01:54:05.043Z,17.99
2016-08-23T01:54:26.761Z,17.97
2016-08-23T01:54:53.261Z,17.90
2016-08-23T01:55:14.995Z,17.92
2016-08-23T01:55:38.728Z,17.95
2016-08-23T01:56:09.993Z,17.95
2016-08-23T01:56:31.719Z,17.98
2016-08-23T01:56:54.442Z,18.04
2016-08-23T01:57:42.651Z,18.02
2016-08-23T01:58:30.872Z,17.99
2016-08-23T01:58:55.466Z,17.97
2016-08-23T01:59:53.222Z,18.01
2016-08-23T02:00:14.994Z,18.05
2016-08-23T02:00:36.703Z,18.05
2016-08-23T02:01:04.192Z,18.08
2016-08-23T02:01:25.927Z,18.07
2016-08-23T02:01:47.642Z,18.06
2016-08-23T02:02:09.400Z,17.98
2016-08-23T02:02:31.127Z,17.93
2016-08-23T02:02:56.817Z,17.88
2016-08-23T02:03:18.528Z,17.87
2016-08-23T02:03:40.349Z,17.88
2016-08-23T02:04:06.882Z,17.84
2016-08-23T02:04:33.375Z,17.84
2016-08-23T02:04:55.134Z,17.85
2016-08-23T02:05:18.842Z,17.86
2016-08-23T02:05:45.387Z,17.83
2016-08-23T02:06:11.888Z,17.82
2016-08-23T02:06:33.615Z,17.85
2016-08-23T02:06:56.332Z,17.82
2016-08-23T02:07:44.558Z,17.74
2016-08-23T02:08:06.331Z,17.79
2016-08-23T02:08:28.080Z,17.72
2016-08-23T02:08:49.797Z,17.73
2016-08-23T02:09:11.514Z,17.73
2016-08-23T02:09:38.010Z,17.68
2016-08-23T02:10:31.002Z,17.67
2016-08-23T02:10:57.504Z,17.67
2016-08-23T02:11:45.718Z,17.60
2016-08-23T02:12:07.453Z,17.61
2016-08-23T02:12:30.275Z,17.57
2016-08-23T02:12:56.771Z,17.64
2016-08-23T02:13:18.490Z,17.69
2016-08-23T02:13:40.216Z,17.77
2016-08-23T02:14:01.968Z,17.84
2016-08-23T02:14:51.168Z,17.85
2016-08-23T02:15:15.597Z,17.85
2016-08-23T02:15:42.141Z,17.86
2016-08-23T02:16:04.040Z,17.85
2016-08-23T02:16:25.765Z,17.86
2016-08-23T02:16:47.505Z,17.84
2016-08-23T02:17:09.228Z,17.89
2016-08-23T02:17:31.957Z,17.94
2016-08-23T02:18:20.183Z,17.93
2016-08-23T02:18:46.682Z,17.92
2016-08-23T02:19:13.220Z,17.89
2016-08-23T02:19:35.946Z,17.89
2016-08-23T02:19:57.655Z,17.87
2016-08-23T02:20:22.064Z,17.81
2016-08-23T02:20:43.789Z,17.84
2016-08-23T02:21:05.508Z,17.84
2016-08-23T02:21:27.235Z,17.79
2016-08-23T02:21:48.986Z,17.78
2016-08-23T02:22:10.803Z,17.77
2016-08-23T02:22:35.514Z,17.73
2016-08-23T02:22:57.238Z,17.71
2016-08-23T02:23:28.500Z,17.68
2016-08-23T02:23:50.416Z,17.65
2016-08-23T02:24:12.127Z,17.66
2016-08-23T02:24:36.733Z,17.59
2016-08-23T02:25:01.033Z,17.64
2016-08-23T02:25:25.347Z,17.61
2016-08-23T02:25:56.615Z,17.64
2016-08-23T02:26:28.189Z,17.64
2016-08-23T02:26:59.448Z,17.57
2016-08-23T02:27:21.238Z,17.57
2016-08-23T02:27:42.954Z,17.56
2016-08-23T02:28:07.531Z,17.55
2016-08-23T02:28:34.413Z,17.55
2016-08-23T02:29:03.726Z,17.60
2016-08-23T02:29:28.036Z,17.69
2016-08-23T02:29:54.522Z,17.77
2016-08-23T02:30:23.827Z,17.83
2016-08-23T02:30:45.549Z,17.84
2016-08-23T02:31:08.272Z,17.84
2016-08-23T02:31:29.989Z,17.84
2016-08-23T02:32:18.210Z,17.73
2016-08-23T02:32:39.982Z,17.77
2016-08-23T02:33:04.067Z,17.80
2016-08-23T02:33:36.361Z,17.86
2016-08-23T02:33:58.077Z,17.78
2016-08-23T02:34:24.570Z,17.73
2016-08-23T02:34:46.320Z,17.78
2016-08-23T02:35:08.049Z,17.84
2016-08-23T02:35:29.767Z,17.85
2016-08-23T02:35:52.526Z,17.81
2016-08-23T02:36:14.254Z,17.81
2016-08-23T02:36:35.968Z,17.76
2016-08-23T02:36:57.754Z,17.81
2016-08-23T02:37:29.009Z,17.83
2016-08-23T02:37:50.735Z,17.73
2016-08-23T02:38:38.948Z,17.77
2016-08-23T02:39:00.673Z,17.82
2016-08-23T02:39:22.408Z,17.78
2016-08-23T02:39:49.902Z,17.76
2016-08-23T02:40:11.625Z,17.72
2016-08-23T02:40:33.344Z,17.74
2016-08-23T02:40:55.065Z,17.75
2016-08-23T02:41:21.561Z,17.76
2016-08-23T02:41:44.285Z,17.75
2016-08-23T02:42:07.019Z,17.78
2016-08-23T02:42:28.743Z,17.75
2016-08-23T02:43:49.224Z,17.80
2016-08-23T02:44:11.953Z,17.75
2016-08-23T02:44:38.438Z,17.70
2016-08-23T02:45:01.166Z,17.65
2016-08-23T02:45:27.659Z,17.66
2016-08-23T02:45:49.519Z,17.65
2016-08-23T02:46:20.780Z,17.65
2016-08-23T02:46:42.496Z,17.64
2016-08-23T02:47:31.724Z,17.63
2016-08-23T02:47:53.437Z,17.60
2016-08-23T02:48:15.162Z,17.63
2016-08-23T02:48:36.889Z,17.67
2016-08-23T02:49:03.390Z,17.68
2016-08-23T02:49:27.853Z,17.68
2016-08-23T02:49:49.573Z,17.69
2016-08-23T02:50:13.994Z,17.74
2016-08-23T02:50:35.722Z,17.72
2016-08-23T02:51:04.881Z,17.64
2016-08-23T02:51:29.488Z,17.67
2016-08-23T02:52:00.746Z,17.76
2016-08-23T02:52:22.462Z,17.77
2016-08-23T02:53:10.686Z,17.66
2016-08-23T02:53:32.413Z,17.60
2016-08-23T02:53:57.114Z,17.52
2016-08-23T02:54:18.837Z,17.48
2016-08-23T02:54:40.602Z,17.43
2016-08-23T02:55:05.129Z,17.39
2016-08-23T02:55:26.854Z,17.31
2016-08-23T02:55:53.360Z,17.33
2016-08-23T02:56:15.076Z,17.36
2016-08-23T02:56:39.414Z,17.34
2016-08-23T02:57:05.907Z,17.38
2016-08-23T02:57:27.623Z,17.37
2016-08-23T02:57:49.347Z,17.36
2016-08-23T02:58:15.845Z,17.39
2016-08-23T02:58:37.588Z,17.46
2016-08-23T02:59:04.078Z,17.52
2016-08-23T02:59:58.079Z,17.57
2016-08-23T03:00:19.805Z,17.51
2016-08-23T03:00:41.531Z,17.48
2016-08-23T03:01:04.347Z,17.50
2016-08-23T03:01:57.328Z,17.61
2016-08-23T03:02:19.048Z,17.58
2016-08-23T03:03:10.061Z,17.57
2016-08-23T03:03:32.781Z,17.56
2016-08-23T03:03:54.499Z,17.60
2016-08-23T03:04:16.245Z,17.60
2016-08-23T03:04:43.748Z,17.58
2016-08-23T03:05:32.979Z,17.59
2016-08-23T03:05:54.716Z,17.56
2016-08-23T03:06:16.611Z,17.54
2016-08-23T03:06:39.547Z,17.58
2016-08-23T03:07:02.276Z,17.58
2016-08-23T03:07:24.001Z,17.61
2016-08-23T03:07:45.755Z,17.64
2016-08-23T03:08:34.034Z,17.72
2016-08-23T03:08:55.751Z,17.70
2016-08-23T03:09:17.483Z,17.72
2016-08-23T03:09:44.986Z,17.71
2016-08-23T03:10:06.701Z,17.70
2016-08-23T03:10:28.422Z,17.73
2016-08-23T03:11:26.174Z,17.65
2016-08-23T03:11:47.968Z,17.65
2016-08-23T03:12:09.690Z,17.61
2016-08-23T03:12:31.414Z,17.58
2016-08-23T03:13:29.164Z,17.58
2016-08-23T03:14:49.661Z,17.57
2016-08-23T03:15:12.388Z,17.54
2016-08-23T03:16:00.603Z,17.47
2016-08-23T03:16:23.326Z,17.40
2016-08-23T03:16:46.065Z,17.45
2016-08-23T03:17:08.792Z,17.48
2016-08-23T03:17:30.515Z,17.55
2016-08-23T03:17:52.234Z,17.58
2016-08-23T03:18:14.968Z,17.59
2016-08-23T03:18:36.693Z,17.57
2016-08-23T03:19:24.909Z,17.52
2016-08-23T03:19:46.627Z,17.54
2016-08-23T03:20:08.367Z,17.55
2016-08-23T03:20:32.065Z,17.54
2016-08-23T03:20:53.783Z,17.57
2016-08-23T03:21:15.523Z,17.56
2016-08-23T03:21:42.017Z,17.55
2016-08-23T03:22:03.745Z,17.55
2016-08-23T03:22:30.234Z,17.49
2016-08-23T03:22:51.954Z,17.45
2016-08-23T03:23:13.679Z,17.34
2016-08-23T03:23:38.343Z,17.27
2016-08-23T03:24:00.247Z,17.24
2016-08-23T03:24:22.081Z,17.28
2016-08-23T03:24:48.589Z,17.33
2016-08-23T03:25:10.333Z,17.41
2016-08-23T03:25:32.060Z,17.48
2016-08-23T03:26:25.065Z,17.49
2016-08-23T03:26:46.806Z,17.48
2016-08-23T03:27:08.520Z,17.49
2016-08-23T03:27:30.240Z,17.50
2016-08-23T03:27:57.725Z,17.42
2016-08-23T03:28:19.607Z,17.45
2016-08-23T03:28:45.332Z,17.47
2016-08-23T03:29:09.665Z,17.49
2016-08-23T03:29:31.415Z,17.43
2016-08-23T03:29:53.129Z,17.39
2016-08-23T03:30:14.848Z,17.36
2016-08-23T03:31:03.060Z,17.47
2016-08-23T03:31:54.163Z,17.50
2016-08-23T03:32:15.878Z,17.46
2016-08-23T03:32:40.221Z,17.43
2016-08-23T03:33:06.724Z,17.43
2016-08-23T03:33:28.442Z,17.42
2016-08-23T03:33:50.161Z,17.39
2016-08-23T03:34:11.881Z,17.37
2016-08-23T03:34:38.375Z,17.34
2016-08-23T03:35:00.101Z,17.35
2016-08-23T03:35:29.585Z,17.44
2016-08-23T03:35:53.927Z,17.47
2016-08-23T03:36:23.277Z,17.49
2016-08-23T03:36:47.681Z,17.47
2016-08-23T03:37:35.865Z,17.45
2016-08-23T03:37:57.594Z,17.43
2016-08-23T03:38:22.016Z,17.41
2016-08-23T03:38:43.751Z,17.37
2016-08-23T03:39:05.476Z,17.40
2016-08-23T03:39:30.011Z,17.42
2016-08-23T03:39:51.735Z,17.46
2016-08-23T03:40:45.121Z,17.45
2016-08-23T03:41:06.842Z,17.45
2016-08-23T03:41:31.181Z,17.40
2016-08-23T03:41:52.900Z,17.40
2016-08-23T03:42:14.614Z,17.43
2016-08-23T03:42:39.213Z,17.48
2016-08-23T03:43:03.524Z,17.44
2016-08-23T03:43:59.434Z,17.26
2016-08-23T03:44:21.158Z,17.24
2016-08-23T03:44:45.411Z,17.29
2016-08-23T03:45:09.662Z,17.29
2016-08-23T03:46:03.442Z,17.28
2016-08-23T03:46:26.172Z,17.26
2016-08-23T03:46:47.899Z,17.23
2016-08-23T03:47:14.405Z,17.22
2016-08-23T03:47:36.291Z,17.24
2016-08-23T03:47:58.239Z,17.22
2016-08-23T03:48:19.957Z,17.25
2016-08-23T03:48:46.447Z,17.27
2016-08-23T03:49:09.165Z,17.31
2016-08-23T03:49:32.881Z,17.37
2016-08-23T03:49:54.595Z,17.36
2016-08-23T03:50:16.314Z,17.38
2016-08-23T03:50:39.032Z,17.34
2016-08-23T03:51:00.755Z,17.32
2016-08-23T03:51:22.466Z,17.34
2016-08-23T03:51:44.189Z,17.35
2016-08-23T03:52:05.909Z,17.34
2016-08-23T03:52:27.629Z,17.36
2016-08-23T03:52:49.354Z,17.36
2016-08-23T03:53:17.859Z,17.36
2016-08-23T03:53:39.579Z,17.37
2016-08-23T03:54:02.315Z,17.36
2016-08-23T03:54:25.031Z,17.35
2016-08-23T03:54:50.587Z,17.40
2016-08-23T03:55:13.311Z,17.38
2016-08-23T03:55:37.064Z,17.41
2016-08-23T03:55:58.794Z,17.35
2016-08-23T03:56:20.560Z,17.30
2016-08-23T03:56:43.319Z,17.28
2016-08-23T03:57:05.037Z,17.26
2016-08-23T03:57:27.764Z,17.28
2016-08-23T03:58:48.243Z,17.27
2016-08-23T03:59:09.962Z,17.28
2016-08-23T03:59:31.696Z,17.32
2016-08-23T03:59:53.416Z,17.34
2016-08-23T04:00:19.921Z,17.36
2016-08-23T04:00:47.262Z,17.36
2016-08-23T04:01:08.989Z,17.32
2016-08-23T04:01:40.245Z,17.32
2016-08-23T04:02:01.979Z,17.28
2016-08-23T04:02:50.180Z,17.32
2016-08-23T04:03:11.898Z,17.27
2016-08-23T04:04:00.117Z,17.28
2016-08-23T04:04:21.835Z,17.27
2016-08-23T04:04:48.454Z,17.25
2016-08-23T04:05:11.186Z,17.24
2016-08-23T04:05:32.907Z,17.24
2016-08-23T04:05:57.206Z,17.26
2016-08-23T04:06:23.695Z,17.35
2016-08-23T04:06:47.927Z,17.33
2016-08-23T04:07:14.418Z,17.26
2016-08-23T04:07:39.064Z,17.26
2016-08-23T04:08:03.448Z,17.26
2016-08-23T04:09:21.145Z,17.23
2016-08-23T04:09:42.903Z,17.25
2016-08-23T04:10:07.616Z,17.30
2016-08-23T04:10:29.340Z,17.33
2016-08-23T04:10:56.330Z,17.35
2016-08-23T04:11:18.052Z,17.33
2016-08-23T04:11:39.814Z,17.34
2016-08-23T04:12:04.321Z,17.36
2016-08-23T04:12:26.050Z,17.35
2016-08-23T04:12:55.175Z,17.37
2016-08-23T04:13:19.836Z,17.39
2016-08-23T04:13:41.565Z,17.39
2016-08-23T04:14:03.383Z,17.32
2016-08-23T04:14:25.157Z,17.33
2016-08-23T04:14:51.644Z,17.33
2016-08-23T04:15:21.070Z,17.32
2016-08-23T04:15:42.801Z,17.32
2016-08-23T04:16:07.150Z,17.33
2016-08-23T04:16:28.868Z,17.33
2016-08-23T04:16:50.585Z,17.25
2016-08-23T04:17:12.331Z,17.23
2016-08-23T04:17:38.819Z,17.20
2016-08-23T04:18:03.367Z,17.18
2016-08-23T04:18:25.093Z,17.14
2016-08-23T04:18:49.536Z,17.17
2016-08-23T04:19:47.831Z,17.24
2016-08-23T04:20:09.540Z,17.19
2016-08-23T04:20:33.972Z,17.22
2016-08-23T04:20:58.368Z,17.21
2016-08-23T04:21:23.085Z,17.18
2016-08-23T04:21:47.453Z,17.18
2016-08-23T04:22:11.814Z,17.20
2016-08-23T04:22:33.536Z,17.22
2016-08-23T04:22:57.978Z,17.22
2016-08-23T04:23:19.713Z,17.18
2016-08-23T04:23:41.430Z,17.14
2016-08-23T04:24:05.969Z,17.14
2016-08-23T04:24:37.235Z,17.20
2016-08-23T04:25:06.333Z,17.20
2016-08-23T04:25:59.900Z,17.22
2016-08-23T04:26:26.394Z,17.20
2016-08-23T04:26:52.891Z,17.19
2016-08-23T04:27:14.607Z,17.22
2016-08-23T04:27:36.333Z,17.20
2016-08-23T04:27:58.055Z,17.15
2016-08-23T04:28:46.314Z,17.11
2016-08-23T04:29:13.097Z,17.07
2016-08-23T04:29:34.821Z,17.08
2016-08-23T04:29:56.565Z,17.11
2016-08-23T04:30:21.165Z,17.15
2016-08-23T04:30:42.881Z,17.22
2016-08-23T04:31:38.607Z,17.26
2016-08-23T04:32:03.049Z,17.24
2016-08-23T04:32:54.253Z,17.23
2016-08-23T04:33:25.511Z,17.18
2016-08-23T04:33:47.231Z,17.20
2016-08-23T04:34:08.939Z,17.18
2016-08-23T04:34:30.675Z,17.18
2016-08-23T04:34:52.392Z,17.22
2016-08-23T04:35:18.878Z,17.24
2016-08-23T04:35:40.616Z,17.25
2016-08-23T04:36:07.104Z,17.23
2016-08-23T04:36:28.869Z,17.24
2016-08-23T04:36:55.969Z,17.22
2016-08-23T04:37:44.172Z,17.22
2016-08-23T04:38:05.914Z,17.18
2016-08-23T04:38:30.621Z,17.18
2016-08-23T04:38:54.923Z,17.15
2016-08-23T04:39:16.654Z,17.09
2016-08-23T04:40:04.876Z,17.08
2016-08-23T04:40:29.343Z,17.12
2016-08-23T04:40:51.062Z,17.19
2016-08-23T04:41:13.790Z,17.20
2016-08-23T04:41:35.495Z,17.13
2016-08-23T04:41:57.215Z,17.16
2016-08-23T04:42:18.929Z,17.14
2016-08-23T04:42:40.654Z,17.18
2016-08-23T04:43:02.375Z,17.22
2016-08-23T04:43:28.864Z,17.23
2016-08-23T04:44:00.385Z,17.24
2016-08-23T04:44:26.727Z,17.26
2016-08-23T04:45:14.951Z,17.21
2016-08-23T04:45:38.080Z,17.18
2016-08-23T04:46:11.447Z,17.24
2016-08-23T04:46:40.752Z,17.20
2016-08-23T04:47:03.981Z,17.15
2016-08-23T04:47:35.245Z,17.08
2016-08-23T04:47:59.559Z,17.03
2016-08-23T04:48:52.977Z,16.84
2016-08-23T04:49:18.566Z,16.83
2016-08-23T04:49:44.869Z,16.85
2016-08-23T04:50:15.935Z,16.88
2016-08-23T04:50:37.662Z,16.92
2016-08-23T04:51:04.282Z,16.92
2016-08-23T04:51:26.007Z,16.95
2016-08-23T04:51:47.726Z,16.94
2016-08-23T04:52:09.450Z,16.92
2016-08-23T04:52:31.166Z,16.91
2016-08-23T04:52:52.883Z,16.94
2016-08-23T04:53:14.601Z,16.92
2016-08-23T04:53:36.323Z,17.00
2016-08-23T04:53:58.044Z,17.04
2016-08-23T04:54:24.536Z,16.98
2016-08-23T04:54:46.311Z,16.98
2016-08-23T04:55:08.034Z,17.06
2016-08-23T04:55:29.854Z,17.10
2016-08-23T04:55:51.579Z,17.07
2016-08-23T04:56:13.292Z,17.05
2016-08-23T04:56:35.011Z,17.09
2016-08-23T04:56:56.779Z,17.06
2016-08-23T04:57:18.499Z,17.03
2016-08-23T04:57:40.223Z,17.04
2016-08-23T04:58:01.942Z,17.03
2016-08-23T04:58:23.664Z,17.04
2016-08-23T04:58:45.396Z,17.02
2016-08-23T04:59:07.107Z,16.98
2016-08-23T04:59:29.820Z,16.98
2016-08-23T04:59:51.537Z,16.97
2016-08-23T05:00:13.252Z,17.02
2016-08-23T05:00:34.969Z,17.02
2016-08-23T05:00:56.687Z,16.96
2016-08-23T05:01:18.412Z,16.89
2016-08-23T05:01:40.126Z,16.95
2016-08-23T05:02:01.845Z,17.00
2016-08-23T05:02:23.573Z,17.06
2016-08-23T05:02:45.283Z,17.12
2016-08-23T05:03:07.213Z,17.08
2016-08-23T05:03:28.925Z,17.05
2016-08-23T05:03:50.649Z,17.07
2016-08-23T05:04:12.364Z,17.12
2016-08-23T05:04:34.093Z,17.12
2016-08-23T05:04:55.817Z,17.14
2016-08-23T05:05:17.540Z,17.11
2016-08-23T05:05:42.242Z,17.11
2016-08-23T05:06:30.455Z,17.04
2016-08-23T05:06:52.171Z,17.07
2016-08-23T05:07:18.664Z,17.09
2016-08-23T05:07:40.387Z,17.11
2016-08-23T05:08:02.108Z,17.18
2016-08-23T05:08:23.820Z,17.18
2016-08-23T05:08:45.534Z,17.19
2016-08-23T05:09:07.248Z,17.19
2016-08-23T05:09:29.982Z,17.20
2016-08-23T05:09:51.711Z,17.16
2016-08-23T05:10:13.424Z,17.21
2016-08-23T05:10:35.136Z,17.22
2016-08-23T05:10:56.848Z,17.22
2016-08-23T05:11:18.581Z,17.22
2016-08-23T05:11:40.297Z,17.22
2016-08-23T05:12:02.010Z,17.23
2016-08-23T05:12:23.720Z,17.23
2016-08-23T05:12:45.436Z,17.22
2016-08-23T05:13:07.155Z,17.22
2016-08-23T05:13:28.876Z,17.22
2016-08-23T05:13:50.593Z,17.23
2016-08-23T05:14:12.310Z,17.26
2016-08-23T05:14:34.028Z,17.24
2016-08-23T05:14:55.750Z,17.26
2016-08-23T05:15:18.490Z,17.21
2016-08-23T05:15:45.091Z,17.25
2016-08-23T05:16:06.808Z,17.27
2016-08-23T05:16:28.524Z,17.30
2016-08-23T05:16:50.375Z,17.28
2016-08-23T05:17:12.089Z,17.27
2016-08-23T05:17:33.815Z,17.30
2016-08-23T05:17:55.531Z,17.29
2016-08-23T05:18:17.242Z,17.33
2016-08-23T05:18:38.968Z,17.33
2016-08-23T05:19:00.689Z,17.33
2016-08-23T05:19:22.409Z,17.32
2016-08-23T05:19:44.125Z,17.25
2016-08-23T05:20:05.855Z,17.25
2016-08-23T05:20:27.577Z,17.20
2016-08-23T05:20:49.302Z,17.18
2016-08-23T05:21:13.042Z,17.19
2016-08-23T05:21:34.759Z,17.22
2016-08-23T05:21:57.472Z,17.25
2016-08-23T05:22:21.743Z,17.24
2016-08-23T05:22:43.461Z,17.29
2016-08-23T05:23:05.172Z,17.35
2016-08-23T05:23:29.743Z,17.34
2016-08-23T05:23:51.589Z,17.35
2016-08-23T05:24:13.313Z,17.37
2016-08-23T05:24:35.031Z,17.37
2016-08-23T05:24:56.748Z,17.37
2016-08-23T05:25:18.482Z,17.30
2016-08-23T05:25:49.739Z,17.29
2016-08-23T05:26:11.458Z,17.32
2016-08-23T05:26:33.169Z,17.33
2016-08-23T05:26:54.890Z,17.37
2016-08-23T05:27:16.613Z,17.36
2016-08-23T05:27:38.331Z,17.37
2016-08-23T05:28:00.069Z,17.40
2016-08-23T05:28:21.791Z,17.41
2016-08-23T05:28:43.504Z,17.43
2016-08-23T05:29:05.216Z,17.43
2016-08-23T05:29:26.935Z,17.44
2016-08-23T05:29:48.648Z,17.45
2016-08-23T05:30:10.366Z,17.46
2016-08-23T05:30:32.154Z,17.44
2016-08-23T05:30:53.994Z,17.44
2016-08-23T05:31:15.708Z,17.43
2016-08-23T05:31:37.563Z,17.50
2016-08-23T05:31:59.283Z,17.42
2016-08-23T05:32:20.999Z,17.42
2016-08-23T05:32:42.714Z,17.43
2016-08-23T05:33:04.446Z,17.47
2016-08-23T05:33:26.164Z,17.46
2016-08-23T05:33:50.546Z,17.48
2016-08-23T05:34:12.279Z,17.47
2016-08-23T05:34:34.017Z,17.44
2016-08-23T05:34:55.732Z,17.45
2016-08-23T05:35:17.458Z,17.43
2016-08-23T05:35:39.176Z,17.44
2016-08-23T05:36:00.893Z,17.46
2016-08-23T05:36:22.616Z,17.43
2016-08-23T05:36:44.409Z,17.44
2016-08-23T05:37:06.128Z,17.46
2016-08-23T05:37:27.850Z,17.46
2016-08-23T05:37:49.566Z,17.49
2016-08-23T05:38:11.283Z,17.54
2016-08-23T05:38:32.998Z,17.57
2016-08-23T05:38:54.733Z,17.56
2016-08-23T05:39:16.457Z,17.53
2016-08-23T05:39:38.192Z,17.52
2016-08-23T05:39:59.922Z,17.52
2016-08-23T05:40:21.635Z,17.52
2016-08-23T05:40:43.364Z,17.50
2016-08-23T05:41:05.079Z,17.49
2016-08-23T05:41:26.851Z,17.54
2016-08-23T05:41:48.575Z,17.58
2016-08-23T05:42:10.289Z,17.57